Nashville, TN (37229)

9:19 PM CDT on August 28, 2016 (GMT -0500)
Maplecrest Donelson , TN | | Change Station

Elev 525 ft 36.18 °N, 86.69 °W | Updated 4 seconds ago

Mostly Cloudy
Mostly Cloudy
79.7 °F
Feels Like 83 °F
N
0.2
Wind Variable Wind from SE
Gusts 3.6 mph

Today
High -- | Low -- °F
--% Chance of Precip.
Yesterday
High -- | Low -- °F
Precip. -- in
Pressure 30.12 in
Visibility 10.0 miles
Clouds Few 5000 ft
Mostly Cloudy 8000 ft
Heat Index 83 °F
Dew Point 73 °F
Humidity 79%
Rainfall 0.00 in
Snow Depth Not available.
6:15 AM 7:19 PM
Waning Crescent, 12% visible
METAR KBNA 290153Z 06009KT 10SM FEW050 BKN080 28/23 A3014 RMK AO2 SLP199 T02780228
Pressure 30.12 in
Visibility 10.0 miles
Clouds Few 5000 ft
Mostly Cloudy 8000 ft
Heat Index 83 °F
Dew Point 73 °F
Humidity 79%
Rainfall 0.00 in
Snow Depth Not available.
6:15 AM 7:19 PM
Waning Crescent, 12% visible
METAR KBNA 290153Z 06009KT 10SM FEW050 BKN080 28/23 A3014 RMK AO2 SLP199 T02780228

10-Day Weather Forecast

Almanac

Astronomy

Aug. 28, 2016 Rise Set
Actual Time
Civil Twilight
Nautical Twilight
Astronomical Twilight
Moon
Length of Visible Light
Length of Day
Tomorrow will be .
, % of the Moon is Illuminated

Today's Extremes

State Highs State Lows

Community

WunderPhotos

Upload Photos

1,935,771 photos uploaded!

WunderBlog® & News

Nearby

Air Quality

  Air Quality AQ Index Pollutant
Not available.

Snow Depth

Station Depth Elevation

Earthquake Activity

City Distance Mag. Time & Date
Minimum magnitude displayed is 2.5.

Coastal Water Temperatures

Place Temperature

Stations

Nearby Weather Stations

Station Location Temp. Windchill Dew Point Humidity Wind Precip. Elev Updated Type
                   

Watches & Warnings

There are currently no watches in effect.